createdAt,value
2018-09-26T00:00:38.376Z,66.27
2018-09-26T00:03:12.323Z,65.17
2018-09-26T00:05:40.914Z,65.91
2018-09-26T00:08:09.178Z,65.59
2018-09-26T00:10:37.381Z,66.40
2018-09-26T00:13:06.136Z,66.40
2018-09-26T00:15:34.397Z,66.77
2018-09-26T00:18:02.649Z,66.85
2018-09-26T00:20:31.237Z,67.97
2018-09-26T00:22:59.879Z,67.92
2018-09-26T00:25:28.134Z,68.68
2018-09-26T00:27:56.708Z,69.46
2018-09-26T00:30:25.916Z,68.38
2018-09-26T00:32:54.294Z,68.28
2018-09-26T00:35:22.700Z,69.08
2018-09-26T00:37:51.406Z,69.45
2018-09-26T00:40:19.835Z,69.43
2018-09-26T00:42:48.736Z,69.38
2018-09-26T00:45:17.285Z,69.21
2018-09-26T00:47:45.602Z,69.72
2018-09-26T00:50:14.379Z,69.22
2018-09-26T00:52:43.971Z,69.67
2018-09-26T00:55:12.233Z,70.71
2018-09-26T00:57:40.763Z,70.71
2018-09-26T01:00:09.298Z,69.43
2018-09-26T01:02:38.427Z,69.44
2018-09-26T01:05:07.244Z,70.83
2018-09-26T01:07:35.619Z,70.50
2018-09-26T01:10:03.960Z,70.86
2018-09-26T01:12:32.237Z,71.03
2018-09-26T01:15:00.515Z,72.01
2018-09-26T01:17:28.835Z,71.84
2018-09-26T01:19:57.140Z,72.28
2018-09-26T01:22:26.238Z,71.36
2018-09-26T01:24:55.267Z,71.94
2018-09-26T01:27:23.538Z,71.97
2018-09-26T01:29:52.532Z,72.57
2018-09-26T01:32:21.702Z,73.02
2018-09-26T01:34:50.283Z,72.95
2018-09-26T01:37:18.794Z,73.19
2018-09-26T01:39:47.340Z,73.16
2018-09-26T01:42:16.536Z,72.95
2018-09-26T01:44:45.033Z,73.77
2018-09-26T01:47:13.308Z,73.69
2018-09-26T01:49:41.562Z,73.12
2018-09-26T01:52:09.891Z,73.65
2018-09-26T01:54:38.785Z,73.93
2018-09-26T01:57:07.308Z,72.96
2018-09-26T01:59:36.048Z,73.09
2018-09-26T02:02:04.314Z,73.29
2018-09-26T02:04:32.686Z,73.60
2018-09-26T02:07:01.216Z,73.18
2018-09-26T02:09:29.840Z,73.78
2018-09-26T02:11:58.125Z,74.78
2018-09-26T02:14:26.471Z,74.65
2018-09-26T02:16:55.067Z,75.64
2018-09-26T02:19:23.365Z,75.77
2018-09-26T02:21:51.581Z,76.09
2018-09-26T02:24:19.782Z,75.78
2018-09-26T02:26:48.271Z,76.06
2018-09-26T02:29:16.840Z,76.40
2018-09-26T02:31:45.205Z,77.23
2018-09-26T02:34:13.570Z,76.87
2018-09-26T02:36:42.125Z,77.29
2018-09-26T02:39:10.365Z,77.67
2018-09-26T02:41:38.968Z,77.17
2018-09-26T02:44:07.635Z,77.51
2018-09-26T02:46:36.240Z,77.09
2018-09-26T02:49:06.020Z,77.13
2018-09-26T02:51:37.780Z,76.67
2018-09-26T02:54:07.138Z,77.19
2018-09-26T02:56:35.861Z,77.87
2018-09-26T02:59:04.165Z,78.25
2018-09-26T03:01:32.684Z,78.67
2018-09-26T03:04:00.955Z,78.77
2018-09-26T03:06:29.313Z,78.59
2018-09-26T03:08:57.582Z,79.00
2018-09-26T03:11:26.368Z,78.75
2018-09-26T03:13:54.612Z,78.49
2018-09-26T03:16:22.909Z,78.95
2018-09-26T03:18:51.393Z,78.64
2018-09-26T03:21:19.854Z,78.28
2018-09-26T03:23:48.310Z,78.86
2018-09-26T03:26:16.603Z,78.96
2018-09-26T03:28:44.852Z,79.49
2018-09-26T03:31:13.410Z,79.70
2018-09-26T03:33:41.700Z,79.62
2018-09-26T03:36:09.983Z,79.26
2018-09-26T03:38:38.615Z,79.05
2018-09-26T03:41:07.220Z,78.62
2018-09-26T03:43:35.590Z,78.66
2018-09-26T03:46:03.864Z,78.20
2018-09-26T03:48:32.178Z,78.70
2018-09-26T03:51:00.399Z,78.73
2018-09-26T03:53:28.625Z,78.73
2018-09-26T03:55:57.218Z,78.24
2018-09-26T03:58:25.452Z,78.55
2018-09-26T04:00:53.713Z,78.68
2018-09-26T04:03:22.450Z,78.96
2018-09-26T04:05:51.044Z,78.39
2018-09-26T04:08:19.660Z,78.23
2018-09-26T04:10:48.297Z,77.33
2018-09-26T04:13:16.741Z,77.39
2018-09-26T04:15:51.591Z,77.32
2018-09-26T04:18:21.384Z,77.77
2018-09-26T04:20:50.666Z,79.03
2018-09-26T04:23:19.757Z,79.71
2018-09-26T04:25:48.235Z,79.90
2018-09-26T04:28:16.762Z,79.63
2018-09-26T04:30:45.200Z,80.69
2018-09-26T04:33:13.912Z,80.37
2018-09-26T04:35:43.258Z,80.74
2018-09-26T04:38:11.559Z,80.76
2018-09-26T04:40:40.475Z,81.57
2018-09-26T04:43:09.749Z,80.57
2018-09-26T04:45:38.236Z,80.24
2018-09-26T04:48:07.214Z,80.15
2018-09-26T04:50:35.511Z,80.59
2018-09-26T04:53:04.240Z,81.34
2018-09-26T04:55:32.904Z,81.71
2018-09-26T04:58:01.946Z,81.85
2018-09-26T05:00:30.393Z,82.29
2018-09-26T05:02:59.225Z,81.65
2018-09-26T05:05:28.634Z,81.85
2018-09-26T05:07:57.440Z,82.95
2018-09-26T05:10:26.000Z,82.67
2018-09-26T05:12:54.382Z,82.97
2018-09-26T05:15:22.922Z,82.98
2018-09-26T05:17:51.605Z,82.08
2018-09-26T05:20:20.036Z,81.95
2018-09-26T05:22:48.491Z,81.91
2018-09-26T05:25:17.154Z,82.14
2018-09-26T05:27:46.115Z,80.91
2018-09-26T05:30:14.528Z,80.07
2018-09-26T05:32:43.940Z,79.43
2018-09-26T05:35:12.859Z,79.31
2018-09-26T05:37:41.214Z,77.91
2018-09-26T05:40:09.573Z,77.99
2018-09-26T05:42:37.897Z,77.07
2018-09-26T05:45:06.238Z,77.63
2018-09-26T05:47:35.096Z,76.36
2018-09-26T05:50:03.576Z,75.48
2018-09-26T05:52:32.031Z,75.57
2018-09-26T05:55:01.474Z,75.81
2018-09-26T05:57:30.156Z,76.02
2018-09-26T05:59:59.384Z,74.62
2018-09-26T06:02:28.677Z,74.63
2018-09-26T06:04:57.067Z,75.52
2018-09-26T06:07:26.117Z,74.71
2018-09-26T06:09:54.469Z,74.75
2018-09-26T06:12:23.044Z,73.42
2018-09-26T06:14:51.677Z,71.62
2018-09-26T06:17:21.100Z,71.23
2018-09-26T06:19:49.676Z,70.79
2018-09-26T06:22:18.523Z,70.95
2018-09-26T06:24:46.938Z,68.18
2018-09-26T06:27:16.267Z,68.29
2018-09-26T06:29:44.996Z,67.40
2018-09-26T06:32:13.730Z,67.56
2018-09-26T06:34:43.128Z,68.64
2018-09-26T06:37:11.941Z,66.91
2018-09-26T06:39:40.596Z,67.82
2018-09-26T06:42:08.936Z,66.33
2018-09-26T06:44:37.163Z,66.09
2018-09-26T06:47:05.976Z,66.62
2018-09-26T06:49:35.100Z,66.81
2018-09-26T06:52:03.370Z,66.71
2018-09-26T06:54:31.661Z,65.36
2018-09-26T06:57:00.043Z,67.13
2018-09-26T06:59:29.258Z,66.67
2018-09-26T07:01:57.599Z,66.18
2018-09-26T07:04:26.597Z,65.59
2018-09-26T07:06:57.704Z,65.30
2018-09-26T07:09:27.546Z,64.34
2018-09-26T07:11:56.054Z,63.70
2018-09-26T07:14:24.636Z,62.80
2018-09-26T07:16:53.473Z,63.13
2018-09-26T07:19:22.969Z,63.04
2018-09-26T07:21:51.481Z,62.63
2018-09-26T07:24:20.075Z,62.89
2018-09-26T07:26:49.317Z,62.07
2018-09-26T07:29:17.805Z,61.51
2018-09-26T07:31:46.187Z,62.25
2018-09-26T07:34:14.851Z,62.54
2018-09-26T07:36:43.885Z,61.26
2018-09-26T07:39:12.831Z,59.67
2018-09-26T07:41:41.237Z,59.65
2018-09-26T07:44:10.178Z,59.11
2018-09-26T07:46:39.463Z,57.99
2018-09-26T07:49:07.891Z,57.90
2018-09-26T07:51:36.552Z,56.87
2018-09-26T07:54:04.922Z,56.18
2018-09-26T07:56:33.355Z,56.71
2018-09-26T07:59:01.827Z,55.17
2018-09-26T08:01:30.939Z,54.61
2018-09-26T08:03:59.695Z,53.81
2018-09-26T08:06:27.970Z,52.94
2018-09-26T08:08:56.325Z,53.15
2018-09-26T08:11:26.567Z,51.44
2018-09-26T08:13:55.078Z,51.17
2018-09-26T08:16:24.465Z,51.73
2018-09-26T08:18:52.941Z,50.35
2018-09-26T08:21:22.415Z,51.17
2018-09-26T08:23:52.457Z,49.84
2018-09-26T08:26:21.800Z,48.25
2018-09-26T08:28:50.660Z,46.61
2018-09-26T08:31:19.921Z,45.75
2018-09-26T08:33:48.480Z,44.31
2018-09-26T08:36:17.330Z,44.27
2018-09-26T08:38:46.081Z,43.93
2018-09-26T08:41:14.429Z,44.02
2018-09-26T08:43:43.757Z,43.72
2018-09-26T08:46:12.346Z,43.59
2018-09-26T08:48:41.278Z,43.65
2018-09-26T08:51:10.648Z,44.15
2018-09-26T08:53:40.951Z,43.56
2018-09-26T08:56:11.132Z,43.54
2018-09-26T08:58:39.783Z,43.70
2018-09-26T09:01:14.061Z,43.77
2018-09-26T09:03:42.432Z,44.35
2018-09-26T09:06:11.193Z,43.82
2018-09-26T09:08:41.881Z,44.58
2018-09-26T09:11:10.558Z,44.63
2018-09-26T09:13:38.932Z,44.57
2018-09-26T09:16:08.952Z,43.76
2018-09-26T09:18:37.904Z,43.64
2018-09-26T09:21:08.373Z,43.41
2018-09-26T09:23:38.361Z,44.82
2018-09-26T09:26:08.821Z,45.16
2018-09-26T09:28:40.655Z,44.63
2018-09-26T09:31:10.189Z,43.42
2018-09-26T09:46:52.909Z,41.81
2018-09-26T09:49:21.539Z,41.02
2018-09-26T09:51:50.003Z,40.41
2018-09-26T09:54:20.226Z,40.80
2018-09-26T09:56:49.894Z,40.53
2018-09-26T09:59:18.832Z,40.09
2018-09-26T10:01:47.277Z,39.42
2018-09-26T10:04:15.842Z,38.70
2018-09-26T10:06:45.038Z,38.57
2018-09-26T10:09:14.736Z,38.83
2018-09-26T10:11:44.161Z,38.14
2018-09-26T10:14:14.767Z,37.59
2018-09-26T10:16:43.325Z,37.96
2018-09-26T10:19:11.955Z,37.64
2018-09-26T10:21:40.909Z,37.92
2018-09-26T10:24:09.965Z,37.76
2018-09-26T10:26:38.558Z,38.49
2018-09-26T10:29:08.402Z,38.49
2018-09-26T10:31:37.515Z,37.37
2018-09-26T10:34:08.689Z,37.03
2018-09-26T10:36:39.366Z,37.14
2018-09-26T10:39:09.746Z,36.33
2018-09-26T10:41:38.402Z,35.64
2018-09-26T10:44:10.980Z,35.68
2018-09-26T10:46:39.699Z,35.47
2018-09-26T10:49:08.530Z,35.00
2018-09-26T10:51:37.427Z,35.47
2018-09-26T10:54:07.157Z,34.76
2018-09-26T10:56:37.046Z,33.77
2018-09-26T10:59:06.192Z,32.80
2018-09-26T11:01:35.486Z,33.44
2018-09-26T11:04:03.961Z,33.22
2018-09-26T11:06:33.556Z,32.59
2018-09-26T11:09:02.103Z,32.14
2018-09-26T11:11:33.489Z,32.67
2018-09-26T11:14:04.366Z,32.58
2018-09-26T11:16:32.780Z,32.40
2018-09-26T11:19:01.339Z,33.18
2018-09-26T11:21:29.852Z,33.39
2018-09-26T11:23:58.257Z,33.08
2018-09-26T11:26:27.928Z,32.01
2018-09-26T11:28:56.952Z,32.90
2018-09-26T11:31:25.319Z,32.81
2018-09-26T11:33:54.405Z,33.42
2018-09-26T11:36:22.925Z,33.70
2018-09-26T11:38:53.513Z,33.93
2018-09-26T11:41:22.635Z,33.16
2018-09-26T11:43:51.216Z,32.17
2018-09-26T11:46:19.934Z,32.78
2018-09-26T11:48:48.746Z,32.20
2018-09-26T11:51:17.553Z,32.18
2018-09-26T11:53:46.989Z,31.71
2018-09-26T11:56:16.484Z,31.05
2018-09-26T11:58:45.057Z,31.20
2018-09-26T12:01:13.992Z,31.68
2018-09-26T12:03:49.000Z,31.80
2018-09-26T12:06:17.869Z,31.01
2018-09-26T12:08:47.271Z,30.73
2018-09-26T12:11:16.065Z,30.88
2018-09-26T12:13:44.639Z,30.60
2018-09-26T12:16:14.145Z,30.12
2018-09-26T12:18:43.033Z,30.16
2018-09-26T12:21:12.336Z,30.92
2018-09-26T12:23:41.739Z,30.64
2018-09-26T12:26:11.639Z,30.42
2018-09-26T12:28:40.619Z,30.29
2018-09-26T12:31:10.097Z,30.33
2018-09-26T12:33:38.941Z,30.11
2018-09-26T12:36:07.386Z,29.83
2018-09-26T12:38:35.662Z,30.16
2018-09-26T12:41:05.149Z,29.95
2018-09-26T12:43:33.511Z,30.07
2018-09-26T12:46:02.263Z,29.52
2018-09-26T12:48:31.443Z,29.63
2018-09-26T12:50:59.775Z,29.60
2018-09-26T12:53:29.200Z,28.88
2018-09-26T12:55:57.887Z,29.20
2018-09-26T12:58:26.159Z,28.37
2018-09-26T13:00:54.413Z,27.63
2018-09-26T13:03:22.951Z,28.08
2018-09-26T13:05:51.577Z,26.94
2018-09-26T13:08:20.414Z,25.50
2018-09-26T13:10:49.033Z,25.01
2018-09-26T13:13:17.459Z,24.06
2018-09-26T13:15:45.980Z,21.71
2018-09-26T13:18:14.563Z,20.65
2018-09-26T13:20:43.090Z,20.01
2018-09-26T13:23:11.660Z,20.17
2018-09-26T13:25:40.086Z,19.33
2018-09-26T13:28:08.630Z,18.97
2018-09-26T13:30:37.211Z,18.18
2018-09-26T13:33:05.801Z,18.94
2018-09-26T13:35:34.480Z,18.44
2018-09-26T13:38:02.717Z,18.40
2018-09-26T13:40:31.039Z,19.66
2018-09-26T13:42:59.307Z,18.38
2018-09-26T13:45:27.548Z,17.06
2018-09-26T13:47:55.804Z,15.75
2018-09-26T13:50:24.511Z,15.81
2018-09-26T13:52:52.871Z,17.25
2018-09-26T13:55:21.319Z,15.91
2018-09-26T13:57:49.552Z,16.03
2018-09-26T14:00:17.939Z,15.81
2018-09-26T14:02:47.129Z,15.55
2018-09-26T14:05:15.472Z,16.26
2018-09-26T14:07:44.089Z,17.06
2018-09-26T14:10:12.441Z,16.73
2018-09-26T14:12:41.130Z,18.14
2018-09-26T14:15:09.751Z,17.54
2018-09-26T14:17:38.431Z,17.70
2018-09-26T14:20:07.139Z,16.92
2018-09-26T14:22:35.615Z,16.17
2018-09-26T14:25:03.849Z,17.87
2018-09-26T14:27:32.893Z,17.32
2018-09-26T14:30:01.150Z,18.59
2018-09-26T14:32:29.491Z,20.28
2018-09-26T14:34:57.757Z,19.64
2018-09-26T14:37:26.529Z,17.99
2018-09-26T14:39:54.757Z,18.20
2018-09-26T14:42:23.032Z,19.44
2018-09-26T14:44:51.272Z,21.85
2018-09-26T14:47:19.823Z,22.70
2018-09-26T14:49:48.053Z,23.45
2018-09-26T14:52:19.683Z,24.12
2018-09-26T14:54:48.732Z,23.99
2018-09-26T14:57:17.029Z,24.24
2018-09-26T14:59:45.386Z,24.18
2018-09-26T15:02:13.695Z,23.87
2018-09-26T15:04:42.459Z,24.46
2018-09-26T15:07:11.013Z,23.84
2018-09-26T15:09:39.613Z,24.17
2018-09-26T15:12:08.950Z,24.53
2018-09-26T15:14:37.220Z,24.61
2018-09-26T15:17:05.572Z,24.41
2018-09-26T15:19:34.087Z,24.16
2018-09-26T15:22:02.870Z,24.85
2018-09-26T15:24:31.409Z,25.78
2018-09-26T15:26:59.684Z,26.30
2018-09-26T15:29:28.007Z,25.48
2018-09-26T15:31:56.691Z,24.56
2018-09-26T15:34:25.086Z,22.47
2018-09-26T15:36:53.960Z,22.18
2018-09-26T15:39:22.451Z,22.17
2018-09-26T15:41:51.216Z,21.08
2018-09-26T15:44:19.656Z,21.70
2018-09-26T15:46:47.890Z,21.69
2018-09-26T15:49:16.179Z,20.84
2018-09-26T15:51:45.519Z,20.79
2018-09-26T15:54:14.009Z,21.01
2018-09-26T15:56:42.307Z,19.88
2018-09-26T15:59:10.787Z,19.86
2018-09-26T16:01:39.594Z,20.17
2018-09-26T16:04:08.182Z,22.02
2018-09-26T16:06:36.419Z,23.25
2018-09-26T16:09:06.118Z,23.41
2018-09-26T16:11:34.635Z,24.36
2018-09-26T16:14:02.944Z,25.51
2018-09-26T16:16:32.078Z,26.08
2018-09-26T16:19:00.936Z,26.66
2018-09-26T16:21:29.312Z,27.63
2018-09-26T16:23:57.692Z,27.94
2018-09-26T16:26:26.540Z,28.21
2018-09-26T16:28:55.191Z,28.22
2018-09-26T16:31:23.533Z,28.76
2018-09-26T16:33:52.778Z,29.21
2018-09-26T16:36:21.552Z,30.09
2018-09-26T16:38:49.808Z,30.54
2018-09-26T16:41:18.591Z,30.66
2018-09-26T16:43:46.984Z,31.28
2018-09-26T16:46:15.363Z,32.69
2018-09-26T16:48:44.255Z,33.33
2018-09-26T16:51:12.697Z,33.39
2018-09-26T16:53:41.748Z,34.01
2018-09-26T16:56:10.264Z,35.67
2018-09-26T16:58:39.348Z,35.82
2018-09-26T17:01:07.676Z,36.71
2018-09-26T17:03:36.139Z,37.95
2018-09-26T17:06:04.756Z,38.62
2018-09-26T17:08:33.271Z,41.14
2018-09-26T17:11:01.591Z,42.31
2018-09-26T17:13:30.780Z,40.68
2018-09-26T17:18:39.842Z,40.86
2018-09-26T17:21:08.400Z,41.55
2018-09-26T17:23:36.718Z,42.09
2018-09-26T17:26:12.488Z,42.21
2018-09-26T17:28:40.865Z,44.14
2018-09-26T17:31:10.989Z,43.44
2018-09-26T17:33:39.705Z,44.75
2018-09-26T17:36:09.400Z,44.06
2018-09-26T17:38:37.960Z,47.51
2018-09-26T17:41:06.970Z,45.89
2018-09-26T17:43:35.298Z,46.35
2018-09-26T17:46:03.792Z,46.18
2018-09-26T17:48:33.042Z,45.75
2018-09-26T17:51:01.911Z,45.90
2018-09-26T17:53:30.285Z,46.99
2018-09-26T17:55:59.046Z,46.96
2018-09-26T17:58:28.024Z,47.12
2018-09-26T18:00:56.734Z,47.65
2018-09-26T18:03:25.536Z,48.24
2018-09-26T18:05:53.986Z,48.44
2018-09-26T18:08:22.752Z,49.02
2018-09-26T18:10:51.361Z,49.80
2018-09-26T18:13:20.116Z,49.11
2018-09-26T18:15:48.588Z,49.98
2018-09-26T18:18:17.064Z,49.57
2018-09-26T18:20:45.295Z,50.76
2018-09-26T18:23:13.554Z,51.81
2018-09-26T18:25:42.172Z,51.57
2018-09-26T18:28:10.434Z,51.06
2018-09-26T18:30:38.812Z,51.08
2018-09-26T18:33:07.164Z,51.73
2018-09-26T18:35:36.026Z,52.22
2018-09-26T18:38:04.855Z,52.32
2018-09-26T18:40:34.038Z,53.25
2018-09-26T18:43:02.478Z,53.90
2018-09-26T18:45:30.831Z,54.45
2018-09-26T18:47:59.215Z,54.34
2018-09-26T18:53:07.862Z,55.13
2018-09-26T18:55:37.457Z,55.25
2018-09-26T18:58:06.211Z,55.29
2018-09-26T19:00:34.723Z,55.98
2018-09-26T19:03:05.255Z,56.52
2018-09-26T19:05:34.108Z,56.89
2018-09-26T19:08:05.110Z,57.03
2018-09-26T19:10:35.287Z,57.78
2018-09-26T19:13:04.580Z,57.77
2018-09-26T19:15:35.006Z,57.44
2018-09-26T19:18:03.385Z,57.86
2018-09-26T19:20:33.532Z,57.02
2018-09-26T19:23:01.904Z,57.39
2018-09-26T19:25:31.146Z,57.45
2018-09-26T19:27:59.446Z,57.19
2018-09-26T19:30:27.796Z,58.24
2018-09-26T19:32:56.342Z,57.87
2018-09-26T19:35:27.153Z,58.47
2018-09-26T19:37:55.984Z,58.48
2018-09-26T19:40:24.601Z,58.85
2018-09-26T19:42:52.823Z,59.63
2018-09-26T19:45:21.737Z,59.99
2018-09-26T19:47:50.017Z,59.52
2018-09-26T19:50:18.892Z,59.27
2018-09-26T19:52:47.193Z,58.79
2018-09-26T19:55:15.765Z,58.91
2018-09-26T19:57:44.033Z,59.03
2018-09-26T20:00:12.244Z,59.72
2018-09-26T20:02:40.723Z,59.14
2018-09-26T20:08:20.548Z,59.61
2018-09-26T20:10:49.963Z,59.29
2018-09-26T20:13:18.212Z,59.88
2018-09-26T20:15:46.694Z,60.33
2018-09-26T20:18:14.998Z,60.08
2018-09-26T20:20:43.396Z,60.67
2018-09-26T20:23:12.040Z,60.49
2018-09-26T20:25:40.238Z,60.69
2018-09-26T20:28:09.031Z,60.68
2018-09-26T20:30:37.645Z,60.69
2018-09-26T20:33:06.503Z,60.81
2018-09-26T20:35:34.939Z,60.53
2018-09-26T20:38:03.331Z,60.95
2018-09-26T20:40:31.660Z,61.65
2018-09-26T20:42:59.866Z,61.40
2018-09-26T20:45:28.131Z,61.74
2018-09-26T20:47:57.365Z,62.49
2018-09-26T20:50:25.617Z,62.26
2018-09-26T20:52:53.881Z,62.79
2018-09-26T20:55:22.537Z,63.14
2018-09-26T20:57:51.072Z,62.85
2018-09-26T21:00:19.425Z,63.18
2018-09-26T21:02:47.922Z,63.32
2018-09-26T21:05:16.248Z,64.07
2018-09-26T21:07:44.802Z,65.00
2018-09-26T21:10:13.228Z,65.75
2018-09-26T21:12:41.693Z,65.01
2018-09-26T21:15:12.394Z,66.79
2018-09-26T21:17:41.217Z,66.85
2018-09-26T21:20:09.513Z,67.97
2018-09-26T21:22:37.991Z,68.09
2018-09-26T21:25:06.360Z,68.64
2018-09-26T21:27:34.956Z,67.42
2018-09-26T21:30:03.281Z,67.28
2018-09-26T21:32:31.517Z,68.35
2018-09-26T21:35:00.537Z,67.28
2018-09-26T21:37:28.765Z,67.51
2018-09-26T21:39:57.261Z,67.50
2018-09-26T21:42:25.716Z,67.83
2018-09-26T21:44:54.077Z,68.68
2018-09-26T21:47:22.860Z,68.53
2018-09-26T21:49:51.384Z,69.54
2018-09-26T21:52:19.719Z,70.27
2018-09-26T21:54:48.549Z,70.39
2018-09-26T21:57:17.125Z,68.85
2018-09-26T21:59:45.470Z,68.89
2018-09-26T22:02:13.781Z,69.45
2018-09-26T22:04:42.233Z,70.08
2018-09-26T22:07:10.815Z,70.36
2018-09-26T22:09:39.170Z,70.19
2018-09-26T22:12:10.345Z,69.91
2018-09-26T22:14:38.802Z,70.02
2018-09-26T22:17:07.179Z,70.73
2018-09-26T22:19:35.422Z,72.25
2018-09-26T22:22:03.828Z,71.46
2018-09-26T22:24:32.075Z,71.77
2018-09-26T22:27:00.305Z,71.80
2018-09-26T22:29:28.665Z,72.43
2018-09-26T22:31:58.068Z,72.92
2018-09-26T22:34:26.747Z,72.21
2018-09-26T22:36:55.718Z,73.31
2018-09-26T22:39:24.248Z,73.51
2018-09-26T22:41:52.558Z,73.17
2018-09-26T22:44:20.814Z,73.75
2018-09-26T22:46:49.696Z,73.83
2018-09-26T22:49:18.021Z,73.57
2018-09-26T22:51:46.499Z,73.93
2018-09-26T22:54:15.054Z,74.10
2018-09-26T22:56:43.298Z,73.00
2018-09-26T22:59:11.907Z,72.71
2018-09-26T23:01:40.425Z,73.09
2018-09-26T23:04:09.433Z,73.58
2018-09-26T23:06:38.381Z,73.44
2018-09-26T23:09:09.668Z,73.23
2018-09-26T23:11:38.553Z,73.42
2018-09-26T23:14:07.017Z,73.29
2018-09-26T23:16:35.308Z,73.08
2018-09-26T23:19:04.130Z,72.26
2018-09-26T23:21:32.919Z,73.29
2018-09-26T23:24:01.415Z,72.78
2018-09-26T23:26:30.287Z,72.65
2018-09-26T23:28:58.450Z,72.14
2018-09-26T23:31:26.989Z,73.04
2018-09-26T23:33:55.532Z,72.89
2018-09-26T23:36:23.920Z,73.90
2018-09-26T23:38:52.188Z,74.08
2018-09-26T23:41:20.904Z,74.20
2018-09-26T23:43:49.068Z,74.73
2018-09-26T23:46:17.315Z,74.74
2018-09-26T23:48:45.636Z,74.53
2018-09-26T23:51:14.249Z,74.95
2018-09-26T23:53:42.648Z,74.64
2018-09-26T23:56:11.008Z,74.11
2018-09-26T23:58:39.277Z,74.40
